Time;durP1;ratioP1;P1;durP2;ratioP2;P2;SDS_P1;SDS_P2;PMS_P1;PMS_P2;Temp;Humidity;BMP_temperature;BMP_pressure;BME280_temperature;BME280_humidity;BME280_pressure;Samples;Min_cycle;Max_cycle;Signal;HPM_P1;HPM_P2
2021/10/09 00:06:21;;;;;;;1.33;0.60;;;22.80;50.40;;;;;;31632531;28;20041;-45
2021/10/09 00:21:23;;;;;;;1.13;0.85;;;23.20;49.60;;;;;;31606931;28;20048;-48
2021/10/09 00:36:25;;;;;;;1.20;0.60;;;23.10;50.10;;;;;;31623354;28;20455;-48
2021/10/09 00:51:27;;;;;;;0.82;0.60;;;22.90;50.20;;;;;;31621350;28;20049;-48
2021/10/09 01:06:29;;;;;;;0.60;0.47;;;22.80;50.50;;;;;;31622237;28;20078;-49
2021/10/09 01:21:38;;;;;;;0.88;0.40;;;22.70;50.40;;;;;;31601729;28;20096;-51
2021/10/09 01:36:40;;;;;;;0.60;0.43;;;22.70;50.40;;;;;;31630938;28;20072;-44
2021/10/09 01:51:42;;;;;;;1.70;0.50;;;22.60;50.50;;;;;;31632913;28;20083;-43
2021/10/09 02:06:44;;;;;;;0.85;0.50;;;22.50;50.40;;;;;;31629737;28;20067;-46
2021/10/09 02:37:07;;;;;;;0.55;0.43;;;22.40;50.50;;;;;;31643965;28;20103;-44
2021/10/09 02:52:09;;;;;;;1.17;0.60;;;22.40;50.60;;;;;;31642402;28;20068;-44
2021/10/09 03:07:12;;;;;;;1.48;0.50;;;22.40;50.90;;;;;;31641803;28;20096;-45
2021/10/09 03:22:14;;;;;;;3.20;0.68;;;22.40;50.80;;;;;;31636779;28;20092;-42
2021/10/09 03:37:15;;;;;;;0.68;0.63;;;23.00;49.90;;;;;;31636608;28;20045;-43
2021/10/09 04:07:39;;;;;;;0.43;0.43;;;23.00;50.10;;;;;;31634223;28;20064;-44
2021/10/09 04:22:42;;;;;;;1.27;0.90;;;22.90;50.40;;;;;;31631589;28;20048;-47
2021/10/09 04:37:44;;;;;;;1.80;0.55;;;22.70;50.30;;;;;;31629087;28;20094;-44
2021/10/09 04:52:46;;;;;;;1.30;0.90;;;22.60;50.20;;;;;;31630009;28;20054;-43
2021/10/09 05:07:49;;;;;;;1.98;1.10;;;22.60;50.30;;;;;;31625937;28;20098;-47
2021/10/09 05:22:52;;;;;;;4.05;2.20;;;22.60;50.20;;;;;;31619197;28;20052;-40
2021/10/09 05:37:59;;;;;;;12.13;3.75;;;22.50;50.60;;;;;;31624193;28;20053;-45
2021/10/09 07:09:26;;;;;;;24.35;7.18;;;22.60;50.10;;;;;;31634989;28;20072;-46
2021/10/09 07:24:28;;;;;;;17.52;6.80;;;22.50;50.20;;;;;;31633557;28;20137;-54
2021/10/09 07:39:32;;;;;;;14.10;6.60;;;22.40;50.30;;;;;;31630148;28;20049;-44
2021/10/09 07:54:34;;;;;;;13.15;7.00;;;22.30;50.30;;;;;;31635185;28;20044;-44
2021/10/09 08:09:36;;;;;;;14.43;7.03;;;22.70;49.40;;;;;;31633333;28;20057;-44
2021/10/09 08:24:45;;;;;;;12.45;6.68;;;22.90;49.20;;;;;;31631890;28;20059;-46
2021/10/09 08:39:47;;;;;;;13.43;6.93;;;22.90;49.50;;;;;;31625803;28;20104;-51
2021/10/09 08:54:50;;;;;;;15.73;6.95;;;22.70;49.30;;;;;;31619575;28;20044;-45
2021/10/09 09:40:40;;;;;;;31.95;10.93;;;22.40;50.00;;;;;;31622667;28;20049;-46
2021/10/09 09:55:42;;;;;;;35.95;10.30;;;22.30;50.20;;;;;;31625698;28;20090;-46
2021/10/09 10:10:52;;;;;;;20.60;8.57;;;22.30;50.00;;;;;;31645691;28;20044;-48
2021/10/09 10:26:20;;;;;;;20.67;8.80;;;22.80;48.80;;;;;;31644326;28;20044;-50
2021/10/09 10:41:39;;;;;;;14.85;6.97;;;22.90;48.80;;;;;;31642104;28;20117;-48
2021/10/09 11:12:01;;;;;;;13.10;6.80;;;22.70;48.90;;;;;;31636488;28;20045;-49
2021/10/09 11:27:03;;;;;;;13.15;7.32;;;22.50;49.30;;;;;;31637088;28;20094;-46
2021/10/09 11:42:12;;;;;;;11.27;7.32;;;22.40;49.60;;;;;;31617761;28;20068;-47
2021/10/09 11:57:15;;;;;;;11.85;6.50;;;22.30;49.60;;;;;;31633159;28;20075;-48
2021/10/09 12:12:23;;;;;;;15.02;7.22;;;22.30;48.90;;;;;;31631308;28;20072;-47
2021/10/09 12:27:27;;;;;;;14.18;6.13;;;22.80;48.50;;;;;;31627929;28;20072;-47
2021/10/09 12:42:29;;;;;;;17.17;7.45;;;22.90;48.30;;;;;;31629111;28;20071;-46
2021/10/09 12:57:31;;;;;;;15.90;6.38;;;22.60;45.90;;;;;;31610320;28;20036;-46
2021/10/09 13:12:33;;;;;;;23.30;6.03;;;22.40;45.40;;;;;;31623527;28;20064;-47
2021/10/09 13:27:35;;;;;;;8.57;5.03;;;22.40;46.50;;;;;;31625881;28;20100;-51
2021/10/09 13:42:37;;;;;;;10.63;5.32;;;22.40;46.80;;;;;;31648039;28;20104;-46
2021/10/09 13:57:39;;;;;;;10.52;5.28;;;22.30;47.20;;;;;;31648919;28;20096;-45
2021/10/09 14:12:41;;;;;;;11.43;5.03;;;22.40;47.10;;;;;;31646921;28;20072;-47
2021/10/09 14:27:44;;;;;;;12.60;4.35;;;22.90;46.70;;;;;;31645603;28;20103;-46
2021/10/09 14:42:47;;;;;;;9.68;4.47;;;22.90;46.80;;;;;;31643192;28;20056;-45
2021/10/09 15:28:30;;;;;;;12.85;4.63;;;22.50;47.10;;;;;;31636225;28;20055;-45
2021/10/09 15:43:43;;;;;;;14.35;4.25;;;22.40;46.70;;;;;;31712500;28;20078;-47
2021/10/09 15:58:46;;;;;;;20.27;4.78;;;22.40;48.60;;;;;;31647599;28;20075;-48
2021/10/09 16:13:50;;;;;;;16.70;4.57;;;22.40;49.30;;;;;;31758583;28;20071;-42
2021/10/09 16:28:53;;;;;;;17.52;5.60;;;22.50;50.40;;;;;;31637172;28;20080;-42
2021/10/09 16:43:55;;;;;;;14.30;4.55;;;22.50;50.90;;;;;;31625967;28;20057;-46
2021/10/09 16:58:57;;;;;;;11.77;4.47;;;22.40;51.30;;;;;;31627058;28;20060;-46
2021/10/09 17:14:01;;;;;;;12.80;5.40;;;22.30;51.30;;;;;;31627391;28;20048;-44
2021/10/09 17:29:04;;;;;;;12.93;5.13;;;22.40;52.10;;;;;;31627577;28;20049;-45
2021/10/09 17:44:06;;;;;;;18.98;5.88;;;22.30;53.20;;;;;;31625281;28;20076;-46
2021/10/09 17:59:08;;;;;;;12.60;4.25;;;22.20;53.50;;;;;;31620398;28;20096;-50
2021/10/09 18:14:10;;;;;;;16.23;4.10;;;22.40;53.20;;;;;;31616899;28;20049;-48
2021/10/09 18:29:12;;;;;;;9.20;3.53;;;23.10;53.30;;;;;;31641799;28;20045;-44
2021/10/09 18:44:15;;;;;;;6.53;3.35;;;23.20;52.80;;;;;;31637845;28;20049;-46
2021/10/09 18:59:17;;;;;;;5.13;2.47;;;23.20;53.10;;;;;;31635250;28;20048;-46
2021/10/09 19:14:28;;;;;;;10.02;2.50;;;23.10;53.40;;;;;;31638982;28;20055;-42
2021/10/09 19:29:30;;;;;;;8.57;2.95;;;23.10;53.30;;;;;;31626940;28;20412;-50
2021/10/09 19:44:32;;;;;;;7.18;2.80;;;23.00;53.40;;;;;;31625604;28;20053;-42
2021/10/09 19:59:36;;;;;;;7.13;2.90;;;23.00;53.80;;;;;;31635473;28;20125;-44
2021/10/09 20:14:40;;;;;;;10.82;3.30;;;22.90;53.60;;;;;;31632741;28;20051;-44
2021/10/09 20:29:42;;;;;;;7.45;2.80;;;22.80;54.60;;;;;;31630581;28;20100;-46
2021/10/09 20:44:44;;;;;;;3.17;1.52;;;22.60;54.40;;;;;;31629800;28;20127;-42
2021/10/09 20:59:46;;;;;;;3.42;1.27;;;22.70;54.00;;;;;;31629102;28;20087;-40
2021/10/09 21:21:40;;;;;;;0.85;0.57;;;22.70;53.90;;;;;;31627614;28;20056;-42
2021/10/09 21:30:11;;;;;;;5.88;2.22;;;22.70;53.90;;;;;;31627168;28;20187;-43
2021/10/09 21:45:13;;;;;;;1.17;1.02;;;22.70;54.00;;;;;;31626616;28;20078;-42
2021/10/09 22:46:29;;;;;;;0.40;0.20;;;22.70;54.00;;;;;;31642926;28;20068;-48
2021/10/09 23:01:31;;;;;;;0.30;0.28;;;22.60;53.90;;;;;;31642190;28;20064;-46
2021/10/09 23:16:33;;;;;;;0.20;0.20;;;22.60;53.80;;;;;;31640211;28;20100;-45
2021/10/09 23:31:36;;;;;;;0.17;0.17;;;22.60;53.90;;;;;;31638954;28;20074;-46
2021/10/09 23:46:38;;;;;;;0.10;0.10;;;22.50;54.30;;;;;;31630228;28;20056;-47
